Vano — SBNM — position and weather

sailwx.info

Track history (hours):
 
Tides and Currents Weather Stations Pressure Air Temp Water Temp Dewpoint Dewpoint Depression Visibility Wind Speed Wind Dir Waves Ship Positions

Vano

Last reported at 2017-Jun-23 01:31 UTC. Time now 2017-Jun-23 01:43 UTC.
Position N 59°20' E 018°05'.

Length 38 m; draft 1.8 m.

Type: Passenger vessel. MMSI: 265520400.

Date/timePositionNaut miles runAvg speedWind from/ knotsBaromVisibWave heightAir tempDewpointWater temp
2017-Jun-23 01:31N 59°20' E 018°05'0 0.0
2017-Jun-23 01:01N 59°20' E 018°05'0 0.0
2017-Jun-23 00:31N 59°20' E 018°05'0 0.0
2017-Jun-23 00:01N 59°20' E 018°05'0 0.0
2017-Jun-22 23:31N 59°20' E 018°05'0 0.0
2017-Jun-22 23:01N 59°20' E 018°05'0 0.0
2017-Jun-22 22:31N 59°20' E 018°05'0 0.0
2017-Jun-22 22:01N 59°20' E 018°05'0 0.0
2017-Jun-22 21:31N 59°20' E 018°05'1 1.6
2017-Jun-22 21:00N 59°19' E 018°06'816.6
2017-Jun-22 20:30N 59°23' E 018°20'510.4
2017-Jun-22 20:00N 59°26' E 018°28'713.7
2017-Jun-22 19:29N 59°26' E 018°42'1 2.1
2017-Jun-22 19:00N 59°27' E 018°44'2 4.4
2017-Jun-22 18:27N 59°26' E 018°39'6 6.4
2017-Jun-22 17:33N 59°25' E 018°28'112.5
2017-Jun-22 17:27N 59°26' E 018°26'3 5.8
2017-Jun-22 17:00N 59°24' E 018°21'5 9.3
2017-Jun-22 16:30N 59°21' E 018°15'510.6
2017-Jun-22 16:00N 59°20' E 018°05'0 0.0
2017-Jun-22 15:30N 59°20' E 018°05'2 4.2
2017-Jun-22 15:00N 59°19' E 018°09'816.3
2017-Jun-22 14:30N 59°24' E 018°21'1212.0
2017-Jun-22 13:28N 59°27' E 018°45'510.6
2017-Jun-22 12:57N 59°26' E 018°56'3 5.1
2017-Jun-22 12:26N 59°24' E 018°53'12 8.2
2017-Jun-22 10:55N 59°25' E 018°28'4 9.3
2017-Jun-22 10:30N 59°24' E 018°21'5 9.3
2017-Jun-22 10:00N 59°21' E 018°15'510.5
2017-Jun-22 09:30N 59°20' E 018°05'0 0.0
2017-Jun-22 09:00N 59°20' E 018°05'0 0.0
2017-Jun-22 08:30N 59°20' E 018°05'0 0.2
2017-Jun-22 08:00N 59°20' E 018°05'510.6
2017-Jun-22 07:31N 59°21' E 018°15'5 9.2
2017-Jun-22 07:00N 59°24' E 018°21'9 6.6
2017-Jun-22 05:35N 59°26' E 018°39'0 2.8
2017-Jun-22 05:28N 59°26' E 018°40'3 5.3
2017-Jun-22 04:56N 59°28' E 018°44'4 9.2
2017-Jun-22 04:29N 59°30' E 018°51'0 0.0
2017-Jun-22 04:00N 59°30' E 018°51'0 0.0
2017-Jun-22 03:27N 59°30' E 018°51'0 0.0
2017-Jun-22 03:00N 59°30' E 018°51'0 0.0
2017-Jun-22 02:29N 59°30' E 018°51'0 0.0
2017-Jun-22 02:00N 59°30' E 018°51'0 0.0
2017-Jun-22 01:26N 59°30' E 018°51'0 0.0
2017-Jun-22 01:01N 59°30' E 018°51'0 0.0
2017-Jun-22 00:31N 59°30' E 018°51'0 0.0
2017-Jun-22 00:00N 59°30' E 018°51'0 0.0
2017-Jun-21 23:30N 59°30' E 018°51'0 0.0
2017-Jun-21 23:00N 59°30' E 018°51'0 0.0
2017-Jun-21 22:31N 59°30' E 018°51'0 0.0
2017-Jun-21 22:00N 59°30' E 018°51'0 0.0
2017-Jun-21 21:30N 59°30' E 018°51'0 0.0
2017-Jun-21 20:39N 59°30' E 018°51'0 0.0
2017-Jun-21 20:29N 59°30' E 018°51'0 0.0
2017-Jun-21 19:55N 59°30' E 018°51'0 0.0
2017-Jun-21 19:29N 59°30' E 018°51'0 0.0
2017-Jun-21 18:59N 59°30' E 018°51'3 6.3
2017-Jun-21 18:30N 59°28' E 018°47'3 6.0
2017-Jun-21 18:01N 59°26' E 018°42'3 4.0
2017-Jun-21 17:23N 59°25' E 018°38'510.1
2017-Jun-21 16:55N 59°25' E 018°28'3 7.5
2017-Jun-21 16:30N 59°25' E 018°22'3 5.0
2017-Jun-21 16:00N 59°23' E 018°20'4 8.9
2017-Jun-21 15:30N 59°20' E 018°13'4 8.6
2017-Jun-21 15:01N 59°20' E 018°04'0 0.0
2017-Jun-21 14:30N 59°20' E 018°04'4 4.5
2017-Jun-21 13:30N 59°20' E 018°13'611.1
2017-Jun-21 13:00N 59°24' E 018°21'4 8.7
2017-Jun-21 12:30N 59°26' E 018°29'10 6.1
2017-Jun-21 10:55N 59°23' E 018°48'3 5.5
2017-Jun-21 10:26N 59°24' E 018°53'3 7.7
2017-Jun-21 10:01N 59°27' E 018°55'4 7.5
2017-Jun-21 09:31N 59°29' E 018°50'3 5.7
2017-Jun-21 08:55N 59°29' E 018°43'5 7.8
2017-Jun-21 08:18N 59°26' E 018°35'3 6.9
2017-Jun-21 07:56N 59°26' E 018°30'511.2
2017-Jun-21 07:30N 59°24' E 018°21'5 9.3
2017-Jun-21 07:00N 59°21' E 018°15'510.6
2017-Jun-21 06:30N 59°20' E 018°05'0 0.0
2017-Jun-21 06:00N 59°20' E 018°05'0 0.0
2017-Jun-21 05:30N 59°20' E 018°05'0 0.0
2017-Jun-21 05:00N 59°20' E 018°05'0 0.0
2017-Jun-21 04:30N 59°20' E 018°05'0 0.0
2017-Jun-21 04:00N 59°20' E 018°05'0 0.0
2017-Jun-21 03:30N 59°20' E 018°05'0 0.0
2017-Jun-21 03:00N 59°20' E 018°05'0 0.0
2017-Jun-21 02:30N 59°20' E 018°05'0 0.0
2017-Jun-21 02:00N 59°20' E 018°05'0 0.0
2017-Jun-21 01:30N 59°20' E 018°05'0 0.0
2017-Jun-21 01:00N 59°20' E 018°05'0 0.0
2017-Jun-21 00:30N 59°20' E 018°05'0 0.0
2017-Jun-21 00:00N 59°20' E 018°05'0 0.0
2017-Jun-20 23:30N 59°20' E 018°05'0 0.0
2017-Jun-20 23:00N 59°20' E 018°05'0 0.0
2017-Jun-20 22:30N 59°20' E 018°05'0 0.0
2017-Jun-20 22:00N 59°20' E 018°05'0 0.0
2017-Jun-20 21:30N 59°20' E 018°05'0 0.0
2017-Jun-20 21:00N 59°20' E 018°05'0 0.0
2017-Jun-20 20:30N 59°20' E 018°05'4 8.2
2017-Jun-20 20:00N 59°20' E 018°12'612.2
2017-Jun-20 19:30N 59°24' E 018°21'6 8.2
2017-Jun-20 18:44N 59°24' E 018°34'4 9.5
2017-Jun-20 18:22N 59°26' E 018°39'1 3.8
2017-Jun-20 17:58N 59°26' E 018°42'5 9.8
2017-Jun-20 17:31N 59°29' E 018°50'3 6.0
2017-Jun-20 16:59N 59°29' E 018°44'5 7.9
2017-Jun-20 16:24N 59°27' E 018°35'3 8.0
2017-Jun-20 15:58N 59°26' E 018°29'4 9.1
2017-Jun-20 15:30N 59°24' E 018°21'5 9.1
2017-Jun-20 15:00N 59°21' E 018°15'510.7
2017-Jun-20 14:30N 59°20' E 018°05'0 0.0
2017-Jun-20 13:30N 59°20' E 018°05'0 0.0
2017-Jun-20 13:00N 59°20' E 018°05'0 0.0
2017-Jun-20 12:31N 59°20' E 018°05'0 0.0
2017-Jun-20 12:00N 59°20' E 018°05'0 0.0
2017-Jun-20 11:31N 59°20' E 018°05'0 0.0
2017-Jun-20 11:00N 59°20' E 018°05'0 0.0
2017-Jun-20 10:30N 59°20' E 018°05'0 0.0
2017-Jun-20 10:01N 59°20' E 018°05'0 0.0
2017-Jun-20 09:30N 59°20' E 018°05'0 0.0
2017-Jun-20 09:00N 59°20' E 018°05'0 0.0
2017-Jun-20 08:30N 59°20' E 018°05'3 6.7
2017-Jun-20 08:00N 59°20' E 018°11'611.1
2017-Jun-20 07:30N 59°23' E 018°20'3 6.0
2017-Jun-20 07:01N 59°26' E 018°22'6 8.8
2017-Jun-20 06:19N 59°24' E 018°34'10 6.5
2017-Jun-20 04:49N 59°24' E 018°53'3 8.1
2017-Jun-20 04:30N 59°26' E 018°56'0 1.0
2017-Jun-20 04:00N 59°27' E 018°55'0 0.0
2017-Jun-20 03:31N 59°27' E 018°55'0 0.0
2017-Jun-20 03:01N 59°27' E 018°55'0 0.0
2017-Jun-20 02:30N 59°27' E 018°55'0 0.0
2017-Jun-20 02:01N 59°27' E 018°55'0 0.0
2017-Jun-20 01:30N 59°27' E 018°55'0 0.0
2017-Jun-20 01:00N 59°27' E 018°55'0 0.0
2017-Jun-20 00:30N 59°27' E 018°55'0 0.0
2017-Jun-20 00:01N 59°27' E 018°55'0 0.0
2017-Jun-19 23:30N 59°27' E 018°55'0 0.0
2017-Jun-19 23:01N 59°27' E 018°55'0 0.0
2017-Jun-19 22:31N 59°27' E 018°55'0 0.0
2017-Jun-19 22:00N 59°27' E 018°55'0 0.0
2017-Jun-19 21:30N 59°27' E 018°55'0 0.0
2017-Jun-19 21:00N 59°27' E 018°55'0 0.0
2017-Jun-19 20:30N 59°27' E 018°55'0 0.0
2017-Jun-19 20:00N 59°27' E 018°55'0 0.0
2017-Jun-19 19:30N 59°27' E 018°55'0 0.0
2017-Jun-19 19:00N 59°27' E 018°55'0 0.0
2017-Jun-19 18:30N 59°27' E 018°55'0 0.0
2017-Jun-19 18:00N 59°27' E 018°55'0 0.0
2017-Jun-19 17:30N 59°27' E 018°55'1 2.1
2017-Jun-19 17:00N 59°25' E 018°55'4 7.0
2017-Jun-19 16:30N 59°23' E 018°51'3 5.4
2017-Jun-19 15:59N 59°23' E 018°45'9 8.4
2017-Jun-19 14:53N 59°25' E 018°28'3 9.2
2017-Jun-19 14:30N 59°24' E 018°21'10 9.6
2017-Jun-19 13:31N 59°20' E 018°04'0 0.1
2017-Jun-19 13:01N 59°20' E 018°04'3 6.1
2017-Jun-19 12:30N 59°19' E 018°11'612.1
2017-Jun-19 12:00N 59°22' E 018°21'3 6.3
2017-Jun-19 11:30N 59°25' E 018°21'4 8.2
2017-Jun-19 11:00N 59°28' E 018°27'3 6.2
2017-Jun-19 10:30N 59°30' E 018°32'1 2.7
2017-Jun-19 10:00N 59°29' E 018°30'3 5.4
2017-Jun-19 09:30N 59°28' E 018°25'4 7.7
2017-Jun-19 09:00N 59°25' E 018°21'3 6.1
2017-Jun-19 08:31N 59°22' E 018°19'611.9
2017-Jun-19 08:01N 59°19' E 018°09'2 4.6
2017-Jun-19 07:30N 59°20' E 018°05'0 0.0
2017-Jun-19 07:01N 59°20' E 018°05'0 0.0
2017-Jun-19 06:31N 59°20' E 018°05'0 0.0
2017-Jun-19 06:00N 59°20' E 018°05'3 6.8
2017-Jun-19 05:31N 59°20' E 018°11'510.1
2017-Jun-19 05:01N 59°23' E 018°19'2 4.0
2017-Jun-19 04:30N 59°24' E 018°23'2 3.9
2017-Jun-19 03:56N 59°23' E 018°27'3 7.0
2017-Jun-19 03:30N 59°24' E 018°21'0 0.0
2017-Jun-19 03:00N 59°24' E 018°21'0 0.0
2017-Jun-19 02:30N 59°24' E 018°21'0 0.0
2017-Jun-19 02:00N 59°24' E 018°21'0 0.0
2017-Jun-19 01:30N 59°24' E 018°21'0 0.0
2017-Jun-19 01:00N 59°24' E 018°21'0 0.0
2017-Jun-19 00:30N 59°24' E 018°21'0 0.0
2017-Jun-19 00:00N 59°24' E 018°21'0 0.0
2017-Jun-18 23:30N 59°24' E 018°21'0 0.0
2017-Jun-18 23:00N 59°24' E 018°21'0 0.0
2017-Jun-18 22:30N 59°24' E 018°21'0 0.0
2017-Jun-18 22:00N 59°24' E 018°21'0 0.0
2017-Jun-18 21:30N 59°24' E 018°21'0 0.0
2017-Jun-18 21:00N 59°24' E 018°21'0 0.0
2017-Jun-18 20:30N 59°24' E 018°21'1 1.8
2017-Jun-18 20:00N 59°23' E 018°20'816.6
2017-Jun-18 19:31N 59°19' E 018°06'1 2.8
2017-Jun-18 19:00N 59°19' E 018°09'612.8
2017-Jun-18 18:30N 59°22' E 018°21'4 7.3
2017-Jun-18 18:00N 59°25' E 018°22'4 7.3
2017-Jun-18 17:30N 59°25' E 018°29'7 9.5
2017-Jun-18 16:48N 59°23' E 018°42'3 3.5
2017-Jun-18 15:59N 59°24' E 018°47'3 5.0
2017-Jun-18 15:22N 59°24' E 018°53'3 7.7
2017-Jun-18 15:00N 59°27' E 018°56'14 2.6
2017-Jun-18 09:31N 59°25' E 018°28'012.2
2017-Jun-18 09:30N 59°25' E 018°28'4 8.2
2017-Jun-18 09:00N 59°24' E 018°21'815.7
2017-Jun-18 08:30N 59°19' E 018°08'2 3.9
2017-Jun-18 08:00N 59°20' E 018°04'0 0.0
2017-Jun-18 07:31N 59°20' E 018°04'0 0.0
2017-Jun-18 07:00N 59°20' E 018°04'0 0.0
2017-Jun-18 06:30N 59°20' E 018°04'0 0.0
2017-Jun-18 06:01N 59°20' E 018°04'0 0.0
2017-Jun-18 05:30N 59°20' E 018°04'0 0.0
2017-Jun-18 05:00N 59°20' E 018°04'0 0.0
2017-Jun-18 04:31N 59°20' E 018°04'0 0.0
2017-Jun-18 04:00N 59°20' E 018°04'0 0.0
2017-Jun-18 03:30N 59°20' E 018°04'0 0.0
2017-Jun-18 03:01N 59°20' E 018°04'0 0.0
2017-Jun-18 02:30N 59°20' E 018°04'0 0.0
2017-Jun-18 02:00N 59°20' E 018°04'0 0.0
2017-Jun-18 01:31N 59°20' E 018°04'0 0.0
2017-Jun-18 01:00N 59°20' E 018°04'0 0.0
2017-Jun-18 00:30N 59°20' E 018°04'0 0.0
2017-Jun-18 00:01N 59°20' E 018°04'0 0.0
2017-Jun-17 23:30N 59°20' E 018°04'0 0.0
2017-Jun-17 23:01N 59°20' E 018°04'0 0.0
2017-Jun-17 22:31N 59°20' E 018°04'0 0.0
2017-Jun-17 22:01N 59°20' E 018°04'0 0.0
2017-Jun-17 21:30N 59°20' E 018°04'0 0.0
2017-Jun-17 21:00N 59°20' E 018°04'0 0.0
2017-Jun-17 20:30N 59°20' E 018°04'0 0.0
2017-Jun-17 20:00N 59°20' E 018°04'0 0.0
2017-Jun-17 19:30N 59°20' E 018°04'0 0.0
2017-Jun-17 19:00N 59°20' E 018°04'0 0.0
2017-Jun-17 18:30N 59°20' E 018°04'0 0.0
2017-Jun-17 18:00N 59°20' E 018°05'0 0.0
2017-Jun-17 17:30N 59°20' E 018°04'0 0.0
2017-Jun-17 17:00N 59°20' E 018°04'0 0.0
2017-Jun-17 16:30N 59°20' E 018°04'0 0.0
2017-Jun-17 16:00N 59°20' E 018°04'0 0.0
2017-Jun-17 15:30N 59°20' E 018°04'0 0.0
2017-Jun-17 15:00N 59°20' E 018°04'6 6.3
2017-Jun-17 14:01N 59°22' E 018°16'4 7.2
2017-Jun-17 13:30N 59°24' E 018°21'4 7.5
2017-Jun-17 13:00N 59°25' E 018°28'612.3
2017-Jun-17 12:30N 59°23' E 018°40'2 3.2
2017-Jun-17 11:57N 59°22' E 018°43'3 6.1
2017-Jun-17 11:30N 59°24' E 018°47'3 5.5
2017-Jun-17 11:00N 59°24' E 018°53'3 5.6
2017-Jun-17 10:30N 59°27' E 018°55'3 5.2
2017-Jun-17 10:00N 59°27' E 018°50'3 5.3
2017-Jun-17 09:30N 59°30' E 018°48'4 7.7
2017-Jun-17 09:01N 59°28' E 018°41'3 6.2
2017-Jun-17 08:30N 59°27' E 018°35'2 5.0
2017-Jun-17 08:00N 59°26' E 018°31'510.1
2017-Jun-17 07:30N 59°24' E 018°21'5 9.2
2017-Jun-17 07:00N 59°21' E 018°15'510.8
2017-Jun-17 06:30N 59°20' E 018°04'0 0.1
2017-Jun-17 06:00N 59°20' E 018°05'0 0.0
2017-Jun-17 05:30N 59°20' E 018°05'0 0.0
2017-Jun-17 05:00N 59°20' E 018°05'0 0.0
2017-Jun-17 04:30N 59°20' E 018°05'0 0.0
2017-Jun-17 04:00N 59°20' E 018°05'0 0.0
2017-Jun-17 03:30N 59°20' E 018°05'0 0.0
2017-Jun-17 03:00N 59°20' E 018°05'0 0.0
2017-Jun-17 02:30N 59°20' E 018°05'0 0.0
2017-Jun-17 02:00N 59°20' E 018°05'0 0.0
2017-Jun-17 01:30N 59°20' E 018°05'0 0.0
2017-Jun-17 01:00N 59°20' E 018°05'0 0.0
2017-Jun-17 00:30N 59°20' E 018°05'0 0.0
2017-Jun-17 00:00N 59°20' E 018°05'0 0.0
2017-Jun-16 23:30N 59°20' E 018°05'0 0.0
2017-Jun-16 23:00N 59°20' E 018°05'0 0.0
2017-Jun-16 22:30N 59°20' E 018°05'0 0.0
2017-Jun-16 22:00N 59°20' E 018°05'3 7.0
2017-Jun-16 21:31N 59°20' E 018°11'713.4
2017-Jun-16 21:01N 59°24' E 018°21'3 5.3
2017-Jun-16 20:30N 59°26' E 018°26'613.0
2017-Jun-16 20:00N 59°26' E 018°39'4 7.5
2017-Jun-16 19:30N 59°28' E 018°45'4 8.0
2017-Jun-16 19:00N 59°27' E 018°52'3 5.2
2017-Jun-16 18:30N 59°25' E 018°54'3 5.9
2017-Jun-16 18:00N 59°23' E 018°49'1 2.5
2017-Jun-16 17:30N 59°23' E 018°46'2 4.4
2017-Jun-16 17:00N 59°24' E 018°42'611.9
2017-Jun-16 16:30N 59°25' E 018°31'510.0
2017-Jun-16 16:00N 59°24' E 018°21'4 9.0
2017-Jun-16 15:30N 59°21' E 018°15'510.8
2017-Jun-16 15:01N 59°20' E 018°04'0 0.1
2017-Jun-16 14:30N 59°20' E 018°04'0 0.0
2017-Jun-16 13:30N 59°20' E 018°04'0 0.0
2017-Jun-16 13:00N 59°20' E 018°04'0 0.0
2017-Jun-16 12:30N 59°20' E 018°04'1 1.8
2017-Jun-16 12:00N 59°19' E 018°06'611.9
2017-Jun-16 11:30N 59°22' E 018°16'4 7.4
2017-Jun-16 11:00N 59°25' E 018°21'4 8.9
2017-Jun-16 10:30N 59°27' E 018°28'1 2.6
2017-Jun-16 10:00N 59°28' E 018°29'3 5.5
2017-Jun-16 09:30N 59°27' E 018°24'3 7.0
2017-Jun-16 09:00N 59°24' E 018°21'5 9.2
2017-Jun-16 08:30N 59°21' E 018°15'510.7
2017-Jun-16 08:00N 59°20' E 018°04'0 0.1
2017-Jun-16 07:30N 59°20' E 018°04'0 0.3
2017-Jun-16 07:00N 59°20' E 018°05'0 0.0
2017-Jun-16 06:30N 59°20' E 018°05'0 0.0
2017-Jun-16 06:00N 59°20' E 018°05'0 0.0
2017-Jun-16 05:30N 59°20' E 018°05'0 0.0
2017-Jun-16 05:00N 59°20' E 018°05'0 0.0
2017-Jun-16 04:29N 59°20' E 018°05'0 0.0
2017-Jun-16 04:00N 59°20' E 018°05'0 0.0
2017-Jun-16 03:31N 59°20' E 018°05'0 0.0
2017-Jun-16 02:59N 59°20' E 018°05'0 0.0
2017-Jun-16 02:30N 59°20' E 018°05'0 0.0
2017-Jun-16 02:00N 59°20' E 018°05'0 0.0
2017-Jun-16 01:30N 59°20' E 018°05'0 0.0
2017-Jun-16 01:00N 59°20' E 018°05'0 0.0
2017-Jun-16 00:30N 59°20' E 018°05'0 0.0
2017-Jun-16 00:00N 59°20' E 018°05'0 0.0
2017-Jun-15 23:30N 59°20' E 018°05'0 0.0
2017-Jun-15 23:00N 59°20' E 018°05'0 0.0
2017-Jun-15 22:30N 59°20' E 018°05'0 0.0
2017-Jun-15 22:00N 59°20' E 018°05'0 0.0
2017-Jun-15 21:30N 59°20' E 018°05'0 0.0
2017-Jun-15 21:00N 59°20' E 018°05'0 0.0
2017-Jun-15 20:30N 59°20' E 018°05'0 0.0
2017-Jun-15 20:00N 59°20' E 018°05'0 0.0
2017-Jun-15 19:30N 59°20' E 018°05'0 0.0
2017-Jun-15 19:00N 59°20' E 018°05'0 0.0
2017-Jun-15 18:30N 59°20' E 018°05'0 0.0
2017-Jun-15 18:00N 59°20' E 018°05'0 0.0
2017-Jun-15 17:30N 59°20' E 018°05'0 0.0
2017-Jun-15 17:00N 59°20' E 018°05'0 0.0
2017-Jun-15 16:30N 59°20' E 018°05'0 0.0
2017-Jun-15 16:00N 59°20' E 018°05'0 0.0
2017-Jun-15 15:30N 59°20' E 018°05'0 0.0
2017-Jun-15 15:00N 59°20' E 018°05'0 0.0
2017-Jun-15 14:00N 59°20' E 018°05'0 0.0
2017-Jun-15 13:30N 59°20' E 018°05'0 0.0
2017-Jun-15 13:00N 59°20' E 018°05'0 0.0
2017-Jun-15 12:30N 59°20' E 018°05'0 0.0
2017-Jun-15 12:00N 59°20' E 018°05'0 0.0
2017-Jun-15 11:30N 59°20' E 018°05'0 0.0
2017-Jun-15 11:00N 59°20' E 018°05'0 0.0
2017-Jun-15 10:30N 59°20' E 018°05'0 0.0
2017-Jun-15 10:00N 59°20' E 018°05'0 0.0
2017-Jun-15 09:30N 59°20' E 018°05'0 0.0
2017-Jun-15 09:00N 59°20' E 018°05'0 0.0
2017-Jun-15 08:30N 59°20' E 018°05'0 0.0
2017-Jun-15 08:00N 59°20' E 018°05'0 0.0
2017-Jun-15 07:30N 59°20' E 018°05'0 0.0
2017-Jun-15 06:59N 59°20' E 018°05'0 0.0
2017-Jun-15 06:30N 59°20' E 018°05'0 0.3
2017-Jun-15 06:00N 59°20' E 018°05'3 6.4
2017-Jun-15 05:30N 59°20' E 018°11'510.2
2017-Jun-15 05:00N 59°23' E 018°19'2 4.0
2017-Jun-15 04:30N 59°24' E 018°23'0 0.1
2017-Jun-15 04:00N 59°24' E 018°23'1 1.7
2017-Jun-15 03:30N 59°24' E 018°21'0 0.0
2017-Jun-15 03:00N 59°24' E 018°21'0 0.0
2017-Jun-15 02:30N 59°24' E 018°21'0 0.0
2017-Jun-15 02:00N 59°24' E 018°21'0 0.0
2017-Jun-15 01:30N 59°24' E 018°21'0 0.0
2017-Jun-15 01:00N 59°24' E 018°21'0 0.0
2017-Jun-15 00:30N 59°24' E 018°21'0 0.0
2017-Jun-15 00:00N 59°24' E 018°21'0 0.0
2017-Jun-14 23:30N 59°24' E 018°21'0 0.0
2017-Jun-14 23:00N 59°24' E 018°21'0 0.0
2017-Jun-14 22:31N 59°24' E 018°21'0 0.0
2017-Jun-14 22:00N 59°24' E 018°21'0 0.0
2017-Jun-14 21:30N 59°24' E 018°21'0 0.0
2017-Jun-14 21:00N 59°24' E 018°21'0 0.0
2017-Jun-14 20:30N 59°24' E 018°21'0 0.0
2017-Jun-14 20:00N 59°24' E 018°21'0 0.0
2017-Jun-14 19:30N 59°24' E 018°21'0 0.0
2017-Jun-14 19:00N 59°24' E 018°21'0 0.0
2017-Jun-14 18:30N 59°24' E 018°21'0 0.0
2017-Jun-14 18:00N 59°24' E 018°21'0 0.0
2017-Jun-14 17:30N 59°24' E 018°21'1 2.1
2017-Jun-14 17:00N 59°24' E 018°23'2 4.2
2017-Jun-14 16:31N 59°23' E 018°19'510.3
2017-Jun-14 16:00N 59°20' E 018°11'3 6.6
2017-Jun-14 15:30N 59°20' E 018°04'0 0.1
2017-Jun-14 15:00N 59°20' E 018°04'0 0.0
2017-Jun-14 14:00N 59°20' E 018°04'0 0.0
2017-Jun-14 13:30N 59°20' E 018°04'0 0.0
2017-Jun-14 13:00N 59°20' E 018°04'0 0.0
2017-Jun-14 12:30N 59°20' E 018°04'0 0.0
2017-Jun-14 12:00N 59°20' E 018°04'0 0.0
2017-Jun-14 11:30N 59°20' E 018°04'0 0.0
2017-Jun-14 11:01N 59°20' E 018°04'0 0.0
2017-Jun-14 10:30N 59°20' E 018°04'0 0.0
2017-Jun-14 10:00N 59°20' E 018°04'0 0.0
2017-Jun-14 09:30N 59°20' E 018°04'0 0.0
2017-Jun-14 09:00N 59°20' E 018°04'0 0.0
2017-Jun-14 08:30N 59°20' E 018°04'2 4.2
2017-Jun-14 08:00N 59°19' E 018°08'612.7
2017-Jun-14 07:30N 59°23' E 018°19'2 4.5
2017-Jun-14 07:00N 59°24' E 018°21'3 6.9
2017-Jun-14 06:30N 59°25' E 018°28'6 8.8
2017-Jun-14 05:52N 59°22' E 018°37'412.3
2017-Jun-14 05:31N 59°23' E 018°45'3 5.7
2017-Jun-14 05:00N 59°23' E 018°51'3 6.7
2017-Jun-14 04:31N 59°25' E 018°55'1 2.4
2017-Jun-14 04:01N 59°27' E 018°55'0 0.0
2017-Jun-14 03:30N 59°27' E 018°55'0 0.0
2017-Jun-14 03:00N 59°27' E 018°55'0 0.0
2017-Jun-14 02:30N 59°27' E 018°55'0 0.0
2017-Jun-14 02:00N 59°27' E 018°55'0 0.0
2017-Jun-14 01:31N 59°27' E 018°55'0 0.0
2017-Jun-14 01:01N 59°27' E 018°55'0 0.0
2017-Jun-14 00:30N 59°27' E 018°55'0 0.0
2017-Jun-14 00:00N 59°27' E 018°55'0 0.0
2017-Jun-13 23:30N 59°27' E 018°55'0 0.0
2017-Jun-13 23:00N 59°27' E 018°55'0 0.0
2017-Jun-13 22:30N 59°27' E 018°55'0 0.0
2017-Jun-13 22:00N 59°27' E 018°55'0 0.0
2017-Jun-13 21:30N 59°27' E 018°55'0 0.0
2017-Jun-13 21:00N 59°27' E 018°55'0 0.0
2017-Jun-13 20:30N 59°27' E 018°55'0 0.0
2017-Jun-13 20:00N 59°27' E 018°55'0 0.0
2017-Jun-13 19:30N 59°27' E 018°55'0 0.0
2017-Jun-13 19:00N 59°27' E 018°55'0 0.0
2017-Jun-13 18:30N 59°27' E 018°55'0 0.0
2017-Jun-13 18:00N 59°27' E 018°55'0 0.0
2017-Jun-13 17:30N 59°27' E 018°55'1 1.4
2017-Jun-13 17:00N 59°26' E 018°56'1 0.1
2017-Jun-13 12:03N 59°25' E 018°55'0 3.0
2017-Jun-13 12:00N 59°25' E 018°55'1 2.4
2017-Jun-13 11:30N 59°27' E 018°55'0 0.0
2017-Jun-13 11:00N 59°27' E 018°55'1 2.5
2017-Jun-13 10:31N 59°25' E 018°55'8 1.6
2017-Jun-13 05:27N 59°26' E 018°39'3 5.1
2017-Jun-13 04:55N 59°27' E 018°45'3 7.8
2017-Jun-13 04:31N 59°29' E 018°50'1 2.4
2017-Jun-13 04:00N 59°30' E 018°51'0 0.0
2017-Jun-13 03:29N 59°30' E 018°51'0 0.0
2017-Jun-13 03:00N 59°30' E 018°51'0 0.0
2017-Jun-13 02:30N 59°30' E 018°51'0 0.0
2017-Jun-13 01:58N 59°30' E 018°51'  
Track history (hours):
 
Tides and Currents Weather Stations Pressure Air Temp Water Temp Dewpoint Dewpoint Depression Visibility Wind Speed Wind Dir Waves Ship Positions

Vano

Last reported at 2017-Jun-23 01:31 UTC. Time now 2017-Jun-23 01:43 UTC.
Position N 59°20' E 018°05'.

Length 38 m; draft 1.8 m.

Type: Passenger vessel. MMSI: 265520400.

Date/timePositionNaut miles runAvg speedWind from/ knotsBaromVisibWave heightAir tempDewpointWater temp
2017-Jun-23 01:31N 59°20' E 018°05'0 0.0
2017-Jun-23 01:01N 59°20' E 018°05'0 0.0
2017-Jun-23 00:31N 59°20' E 018°05'0 0.0
2017-Jun-23 00:01N 59°20' E 018°05'0 0.0
2017-Jun-22 23:31N 59°20' E 018°05'0 0.0
2017-Jun-22 23:01N 59°20' E 018°05'0 0.0
2017-Jun-22 22:31N 59°20' E 018°05'0 0.0
2017-Jun-22 22:01N 59°20' E 018°05'0 0.0
2017-Jun-22 21:31N 59°20' E 018°05'1 1.6
2017-Jun-22 21:00N 59°19' E 018°06'816.6
2017-Jun-22 20:30N 59°23' E 018°20'510.4
2017-Jun-22 20:00N 59°26' E 018°28'713.7
2017-Jun-22 19:29N 59°26' E 018°42'1 2.1
2017-Jun-22 19:00N 59°27' E 018°44'2 4.4
2017-Jun-22 18:27N 59°26' E 018°39'6 6.4
2017-Jun-22 17:33N 59°25' E 018°28'112.5
2017-Jun-22 17:27N 59°26' E 018°26'3 5.8
2017-Jun-22 17:00N 59°24' E 018°21'5 9.3
2017-Jun-22 16:30N 59°21' E 018°15'510.6
2017-Jun-22 16:00N 59°20' E 018°05'0 0.0
2017-Jun-22 15:30N 59°20' E 018°05'2 4.2
2017-Jun-22 15:00N 59°19' E 018°09'816.3
2017-Jun-22 14:30N 59°24' E 018°21'1212.0
2017-Jun-22 13:28N 59°27' E 018°45'510.6
2017-Jun-22 12:57N 59°26' E 018°56'3 5.1
2017-Jun-22 12:26N 59°24' E 018°53'12 8.2
2017-Jun-22 10:55N 59°25' E 018°28'4 9.3
2017-Jun-22 10:30N 59°24' E 018°21'5 9.3
2017-Jun-22 10:00N 59°21' E 018°15'510.5
2017-Jun-22 09:30N 59°20' E 018°05'0 0.0
2017-Jun-22 09:00N 59°20' E 018°05'0 0.0
2017-Jun-22 08:30N 59°20' E 018°05'0 0.2
2017-Jun-22 08:00N 59°20' E 018°05'510.6
2017-Jun-22 07:31N 59°21' E 018°15'5 9.2
2017-Jun-22 07:00N 59°24' E 018°21'9 6.6
2017-Jun-22 05:35N 59°26' E 018°39'0 2.8
2017-Jun-22 05:28N 59°26' E 018°40'3 5.3
2017-Jun-22 04:56N 59°28' E 018°44'4 9.2
2017-Jun-22 04:29N 59°30' E 018°51'0 0.0
2017-Jun-22 04:00N 59°30' E 018°51'0 0.0
2017-Jun-22 03:27N 59°30' E 018°51'0 0.0
2017-Jun-22 03:00N 59°30' E 018°51'0 0.0
2017-Jun-22 02:29N 59°30' E 018°51'0 0.0
2017-Jun-22 02:00N 59°30' E 018°51'0 0.0
2017-Jun-22 01:26N 59°30' E 018°51'0 0.0
2017-Jun-22 01:01N 59°30' E 018°51'0 0.0
2017-Jun-22 00:31N 59°30' E 018°51'0 0.0
2017-Jun-22 00:00N 59°30' E 018°51'0 0.0
2017-Jun-21 23:30N 59°30' E 018°51'0 0.0
2017-Jun-21 23:00N 59°30' E 018°51'0 0.0
2017-Jun-21 22:31N 59°30' E 018°51'0 0.0
2017-Jun-21 22:00N 59°30' E 018°51'0 0.0
2017-Jun-21 21:30N 59°30' E 018°51'0 0.0
2017-Jun-21 20:39N 59°30' E 018°51'0 0.0
2017-Jun-21 20:29N 59°30' E 018°51'0 0.0
2017-Jun-21 19:55N 59°30' E 018°51'0 0.0
2017-Jun-21 19:29N 59°30' E 018°51'0 0.0
2017-Jun-21 18:59N 59°30' E 018°51'3 6.3
2017-Jun-21 18:30N 59°28' E 018°47'3 6.0
2017-Jun-21 18:01N 59°26' E 018°42'3 4.0
2017-Jun-21 17:23N 59°25' E 018°38'510.1
2017-Jun-21 16:55N 59°25' E 018°28'3 7.5
2017-Jun-21 16:30N 59°25' E 018°22'3 5.0
2017-Jun-21 16:00N 59°23' E 018°20'4 8.9
2017-Jun-21 15:30N 59°20' E 018°13'4 8.6
2017-Jun-21 15:01N 59°20' E 018°04'0 0.0
2017-Jun-21 14:30N 59°20' E 018°04'4 4.5
2017-Jun-21 13:30N 59°20' E 018°13'611.1
2017-Jun-21 13:00N 59°24' E 018°21'4 8.7
2017-Jun-21 12:30N 59°26' E 018°29'10 6.1
2017-Jun-21 10:55N 59°23' E 018°48'3 5.5
2017-Jun-21 10:26N 59°24' E 018°53'3 7.7
2017-Jun-21 10:01N 59°27' E 018°55'4 7.5
2017-Jun-21 09:31N 59°29' E 018°50'3 5.7
2017-Jun-21 08:55N 59°29' E 018°43'5 7.8
2017-Jun-21 08:18N 59°26' E 018°35'3 6.9
2017-Jun-21 07:56N 59°26' E 018°30'511.2
2017-Jun-21 07:30N 59°24' E 018°21'5 9.3
2017-Jun-21 07:00N 59°21' E 018°15'510.6
2017-Jun-21 06:30N 59°20' E 018°05'0 0.0
2017-Jun-21 06:00N 59°20' E 018°05'0 0.0
2017-Jun-21 05:30N 59°20' E 018°05'0 0.0
2017-Jun-21 05:00N 59°20' E 018°05'0 0.0
2017-Jun-21 04:30N 59°20' E 018°05'0 0.0
2017-Jun-21 04:00N 59°20' E 018°05'0 0.0
2017-Jun-21 03:30N 59°20' E 018°05'0 0.0
2017-Jun-21 03:00N 59°20' E 018°05'0 0.0
2017-Jun-21 02:30N 59°20' E 018°05'0 0.0
2017-Jun-21 02:00N 59°20' E 018°05'0 0.0
2017-Jun-21 01:30N 59°20' E 018°05'0 0.0
2017-Jun-21 01:00N 59°20' E 018°05'0 0.0
2017-Jun-21 00:30N 59°20' E 018°05'0 0.0
2017-Jun-21 00:00N 59°20' E 018°05'0 0.0
2017-Jun-20 23:30N 59°20' E 018°05'0 0.0
2017-Jun-20 23:00N 59°20' E 018°05'0 0.0
2017-Jun-20 22:30N 59°20' E 018°05'0 0.0
2017-Jun-20 22:00N 59°20' E 018°05'0 0.0
2017-Jun-20 21:30N 59°20' E 018°05'0 0.0
2017-Jun-20 21:00N 59°20' E 018°05'0 0.0
2017-Jun-20 20:30N 59°20' E 018°05'4 8.2
2017-Jun-20 20:00N 59°20' E 018°12'612.2
2017-Jun-20 19:30N 59°24' E 018°21'6 8.2
2017-Jun-20 18:44N 59°24' E 018°34'4 9.5
2017-Jun-20 18:22N 59°26' E 018°39'1 3.8
2017-Jun-20 17:58N 59°26' E 018°42'5 9.8
2017-Jun-20 17:31N 59°29' E 018°50'3 6.0
2017-Jun-20 16:59N 59°29' E 018°44'5 7.9
2017-Jun-20 16:24N 59°27' E 018°35'3 8.0
2017-Jun-20 15:58N 59°26' E 018°29'4 9.1
2017-Jun-20 15:30N 59°24' E 018°21'5 9.1
2017-Jun-20 15:00N 59°21' E 018°15'510.7
2017-Jun-20 14:30N 59°20' E 018°05'0 0.0
2017-Jun-20 13:30N 59°20' E 018°05'0 0.0
2017-Jun-20 13:00N 59°20' E 018°05'0 0.0
2017-Jun-20 12:31N 59°20' E 018°05'0 0.0
2017-Jun-20 12:00N 59°20' E 018°05'0 0.0
2017-Jun-20 11:31N 59°20' E 018°05'0 0.0
2017-Jun-20 11:00N 59°20' E 018°05'0 0.0
2017-Jun-20 10:30N 59°20' E 018°05'0 0.0
2017-Jun-20 10:01N 59°20' E 018°05'0 0.0
2017-Jun-20 09:30N 59°20' E 018°05'0 0.0
2017-Jun-20 09:00N 59°20' E 018°05'0 0.0
2017-Jun-20 08:30N 59°20' E 018°05'3 6.7
2017-Jun-20 08:00N 59°20' E 018°11'611.1
2017-Jun-20 07:30N 59°23' E 018°20'3 6.0
2017-Jun-20 07:01N 59°26' E 018°22'6 8.8
2017-Jun-20 06:19N 59°24' E 018°34'10 6.5
2017-Jun-20 04:49N 59°24' E 018°53'3 8.1
2017-Jun-20 04:30N 59°26' E 018°56'0 1.0
2017-Jun-20 04:00N 59°27' E 018°55'0 0.0
2017-Jun-20 03:31N 59°27' E 018°55'0 0.0
2017-Jun-20 03:01N 59°27' E 018°55'0 0.0
2017-Jun-20 02:30N 59°27' E 018°55'0 0.0
2017-Jun-20 02:01N 59°27' E 018°55'0 0.0
2017-Jun-20 01:30N 59°27' E 018°55'0 0.0
2017-Jun-20 01:00N 59°27' E 018°55'0 0.0
2017-Jun-20 00:30N 59°27' E 018°55'0 0.0
2017-Jun-20 00:01N 59°27' E 018°55'0 0.0
2017-Jun-19 23:30N 59°27' E 018°55'0 0.0
2017-Jun-19 23:01N 59°27' E 018°55'0 0.0
2017-Jun-19 22:31N 59°27' E 018°55'0 0.0
2017-Jun-19 22:00N 59°27' E 018°55'0 0.0
2017-Jun-19 21:30N 59°27' E 018°55'0 0.0
2017-Jun-19 21:00N 59°27' E 018°55'0 0.0
2017-Jun-19 20:30N 59°27' E 018°55'0 0.0
2017-Jun-19 20:00N 59°27' E 018°55'0 0.0
2017-Jun-19 19:30N 59°27' E 018°55'0 0.0
2017-Jun-19 19:00N 59°27' E 018°55'0 0.0
2017-Jun-19 18:30N 59°27' E 018°55'0 0.0
2017-Jun-19 18:00N 59°27' E 018°55'0 0.0
2017-Jun-19 17:30N 59°27' E 018°55'1 2.1
2017-Jun-19 17:00N 59°25' E 018°55'4 7.0
2017-Jun-19 16:30N 59°23' E 018°51'3 5.4
2017-Jun-19 15:59N 59°23' E 018°45'9 8.4
2017-Jun-19 14:53N 59°25' E 018°28'3 9.2
2017-Jun-19 14:30N 59°24' E 018°21'10 9.6
2017-Jun-19 13:31N 59°20' E 018°04'0 0.1
2017-Jun-19 13:01N 59°20' E 018°04'3 6.1
2017-Jun-19 12:30N 59°19' E 018°11'612.1
2017-Jun-19 12:00N 59°22' E 018°21'3 6.3
2017-Jun-19 11:30N 59°25' E 018°21'4 8.2
2017-Jun-19 11:00N 59°28' E 018°27'3 6.2
2017-Jun-19 10:30N 59°30' E 018°32'1 2.7
2017-Jun-19 10:00N 59°29' E 018°30'3 5.4
2017-Jun-19 09:30N 59°28' E 018°25'4 7.7
2017-Jun-19 09:00N 59°25' E 018°21'3 6.1
2017-Jun-19 08:31N 59°22' E 018°19'611.9
2017-Jun-19 08:01N 59°19' E 018°09'2 4.6
2017-Jun-19 07:30N 59°20' E 018°05'0 0.0
2017-Jun-19 07:01N 59°20' E 018°05'0 0.0
2017-Jun-19 06:31N 59°20' E 018°05'0 0.0
2017-Jun-19 06:00N 59°20' E 018°05'3 6.8
2017-Jun-19 05:31N 59°20' E 018°11'510.1
2017-Jun-19 05:01N 59°23' E 018°19'2 4.0
2017-Jun-19 04:30N 59°24' E 018°23'2 3.9
2017-Jun-19 03:56N 59°23' E 018°27'3 7.0
2017-Jun-19 03:30N 59°24' E 018°21'0 0.0
2017-Jun-19 03:00N 59°24' E 018°21'0 0.0
2017-Jun-19 02:30N 59°24' E 018°21'0 0.0
2017-Jun-19 02:00N 59°24' E 018°21'0 0.0
2017-Jun-19 01:30N 59°24' E 018°21'0 0.0
2017-Jun-19 01:00N 59°24' E 018°21'0 0.0
2017-Jun-19 00:30N 59°24' E 018°21'0 0.0
2017-Jun-19 00:00N 59°24' E 018°21'0 0.0
2017-Jun-18 23:30N 59°24' E 018°21'0 0.0
2017-Jun-18 23:00N 59°24' E 018°21'0 0.0
2017-Jun-18 22:30N 59°24' E 018°21'0 0.0
2017-Jun-18 22:00N 59°24' E 018°21'0 0.0
2017-Jun-18 21:30N 59°24' E 018°21'0 0.0
2017-Jun-18 21:00N 59°24' E 018°21'0 0.0
2017-Jun-18 20:30N 59°24' E 018°21'1 1.8
2017-Jun-18 20:00N 59°23' E 018°20'816.6
2017-Jun-18 19:31N 59°19' E 018°06'1 2.8
2017-Jun-18 19:00N 59°19' E 018°09'612.8
2017-Jun-18 18:30N 59°22' E 018°21'4 7.3
2017-Jun-18 18:00N 59°25' E 018°22'4 7.3
2017-Jun-18 17:30N 59°25' E 018°29'7 9.5
2017-Jun-18 16:48N 59°23' E 018°42'3 3.5
2017-Jun-18 15:59N 59°24' E 018°47'3 5.0
2017-Jun-18 15:22N 59°24' E 018°53'3 7.7
2017-Jun-18 15:00N 59°27' E 018°56'14 2.6
2017-Jun-18 09:31N 59°25' E 018°28'012.2
2017-Jun-18 09:30N 59°25' E 018°28'4 8.2
2017-Jun-18 09:00N 59°24' E 018°21'815.7
2017-Jun-18 08:30N 59°19' E 018°08'2 3.9
2017-Jun-18 08:00N 59°20' E 018°04'0 0.0
2017-Jun-18 07:31N 59°20' E 018°04'0 0.0
2017-Jun-18 07:00N 59°20' E 018°04'0 0.0
2017-Jun-18 06:30N 59°20' E 018°04'0 0.0
2017-Jun-18 06:01N 59°20' E 018°04'0 0.0
2017-Jun-18 05:30N 59°20' E 018°04'0 0.0
2017-Jun-18 05:00N 59°20' E 018°04'0 0.0
2017-Jun-18 04:31N 59°20' E 018°04'0 0.0
2017-Jun-18 04:00N 59°20' E 018°04'0 0.0
2017-Jun-18 03:30N 59°20' E 018°04'0 0.0
2017-Jun-18 03:01N 59°20' E 018°04'0 0.0
2017-Jun-18 02:30N 59°20' E 018°04'0 0.0
2017-Jun-18 02:00N 59°20' E 018°04'0 0.0
2017-Jun-18 01:31N 59°20' E 018°04'0 0.0
2017-Jun-18 01:00N 59°20' E 018°04'0 0.0
2017-Jun-18 00:30N 59°20' E 018°04'0 0.0
2017-Jun-18 00:01N 59°20' E 018°04'0 0.0
2017-Jun-17 23:30N 59°20' E 018°04'0 0.0
2017-Jun-17 23:01N 59°20' E 018°04'0 0.0
2017-Jun-17 22:31N 59°20' E 018°04'0 0.0
2017-Jun-17 22:01N 59°20' E 018°04'0 0.0
2017-Jun-17 21:30N 59°20' E 018°04'0 0.0
2017-Jun-17 21:00N 59°20' E 018°04'0 0.0
2017-Jun-17 20:30N 59°20' E 018°04'0 0.0
2017-Jun-17 20:00N 59°20' E 018°04'0 0.0
2017-Jun-17 19:30N 59°20' E 018°04'0 0.0
2017-Jun-17 19:00N 59°20' E 018°04'0 0.0
2017-Jun-17 18:30N 59°20' E 018°04'0 0.0
2017-Jun-17 18:00N 59°20' E 018°05'0 0.0
2017-Jun-17 17:30N 59°20' E 018°04'0 0.0
2017-Jun-17 17:00N 59°20' E 018°04'0 0.0
2017-Jun-17 16:30N 59°20' E 018°04'0 0.0
2017-Jun-17 16:00N 59°20' E 018°04'0 0.0
2017-Jun-17 15:30N 59°20' E 018°04'0 0.0
2017-Jun-17 15:00N 59°20' E 018°04'6 6.3
2017-Jun-17 14:01N 59°22' E 018°16'4 7.2
2017-Jun-17 13:30N 59°24' E 018°21'4 7.5
2017-Jun-17 13:00N 59°25' E 018°28'612.3
2017-Jun-17 12:30N 59°23' E 018°40'2 3.2
2017-Jun-17 11:57N 59°22' E 018°43'3 6.1
2017-Jun-17 11:30N 59°24' E 018°47'3 5.5
2017-Jun-17 11:00N 59°24' E 018°53'3 5.6
2017-Jun-17 10:30N 59°27' E 018°55'3 5.2
2017-Jun-17 10:00N 59°27' E 018°50'3 5.3
2017-Jun-17 09:30N 59°30' E 018°48'4 7.7
2017-Jun-17 09:01N 59°28' E 018°41'3 6.2
2017-Jun-17 08:30N 59°27' E 018°35'2 5.0
2017-Jun-17 08:00N 59°26' E 018°31'510.1
2017-Jun-17 07:30N 59°24' E 018°21'5 9.2
2017-Jun-17 07:00N 59°21' E 018°15'510.8
2017-Jun-17 06:30N 59°20' E 018°04'0 0.1
2017-Jun-17 06:00N 59°20' E 018°05'0 0.0
2017-Jun-17 05:30N 59°20' E 018°05'0 0.0
2017-Jun-17 05:00N 59°20' E 018°05'0 0.0
2017-Jun-17 04:30N 59°20' E 018°05'0 0.0
2017-Jun-17 04:00N 59°20' E 018°05'0 0.0
2017-Jun-17 03:30N 59°20' E 018°05'0 0.0
2017-Jun-17 03:00N 59°20' E 018°05'0 0.0
2017-Jun-17 02:30N 59°20' E 018°05'0 0.0
2017-Jun-17 02:00N 59°20' E 018°05'0 0.0
2017-Jun-17 01:30N 59°20' E 018°05'0 0.0
2017-Jun-17 01:00N 59°20' E 018°05'0 0.0
2017-Jun-17 00:30N 59°20' E 018°05'0 0.0
2017-Jun-17 00:00N 59°20' E 018°05'0 0.0
2017-Jun-16 23:30N 59°20' E 018°05'0 0.0
2017-Jun-16 23:00N 59°20' E 018°05'0 0.0
2017-Jun-16 22:30N 59°20' E 018°05'0 0.0
2017-Jun-16 22:00N 59°20' E 018°05'3 7.0
2017-Jun-16 21:31N 59°20' E 018°11'713.4
2017-Jun-16 21:01N 59°24' E 018°21'3 5.3
2017-Jun-16 20:30N 59°26' E 018°26'613.0
2017-Jun-16 20:00N 59°26' E 018°39'4 7.5
2017-Jun-16 19:30N 59°28' E 018°45'4 8.0
2017-Jun-16 19:00N 59°27' E 018°52'3 5.2
2017-Jun-16 18:30N 59°25' E 018°54'3 5.9
2017-Jun-16 18:00N 59°23' E 018°49'1 2.5
2017-Jun-16 17:30N 59°23' E 018°46'2 4.4
2017-Jun-16 17:00N 59°24' E 018°42'611.9
2017-Jun-16 16:30N 59°25' E 018°31'510.0
2017-Jun-16 16:00N 59°24' E 018°21'4 9.0
2017-Jun-16 15:30N 59°21' E 018°15'510.8
2017-Jun-16 15:01N 59°20' E 018°04'0 0.1
2017-Jun-16 14:30N 59°20' E 018°04'0 0.0
2017-Jun-16 13:30N 59°20' E 018°04'0 0.0
2017-Jun-16 13:00N 59°20' E 018°04'0 0.0
2017-Jun-16 12:30N 59°20' E 018°04'1 1.8
2017-Jun-16 12:00N 59°19' E 018°06'611.9
2017-Jun-16 11:30N 59°22' E 018°16'4 7.4
2017-Jun-16 11:00N 59°25' E 018°21'4 8.9
2017-Jun-16 10:30N 59°27' E 018°28'1 2.6
2017-Jun-16 10:00N 59°28' E 018°29'3 5.5
2017-Jun-16 09:30N 59°27' E 018°24'3 7.0
2017-Jun-16 09:00N 59°24' E 018°21'5 9.2
2017-Jun-16 08:30N 59°21' E 018°15'510.7
2017-Jun-16 08:00N 59°20' E 018°04'0 0.1
2017-Jun-16 07:30N 59°20' E 018°04'0 0.3
2017-Jun-16 07:00N 59°20' E 018°05'0 0.0
2017-Jun-16 06:30N 59°20' E 018°05'0 0.0
2017-Jun-16 06:00N 59°20' E 018°05'0 0.0
2017-Jun-16 05:30N 59°20' E 018°05'0 0.0
2017-Jun-16 05:00N 59°20' E 018°05'0 0.0
2017-Jun-16 04:29N 59°20' E 018°05'0 0.0
2017-Jun-16 04:00N 59°20' E 018°05'0 0.0
2017-Jun-16 03:31N 59°20' E 018°05'0 0.0
2017-Jun-16 02:59N 59°20' E 018°05'0 0.0
2017-Jun-16 02:30N 59°20' E 018°05'0 0.0
2017-Jun-16 02:00N 59°20' E 018°05'0 0.0
2017-Jun-16 01:30N 59°20' E 018°05'0 0.0
2017-Jun-16 01:00N 59°20' E 018°05'0 0.0
2017-Jun-16 00:30N 59°20' E 018°05'0 0.0
2017-Jun-16 00:00N 59°20' E 018°05'0 0.0
2017-Jun-15 23:30N 59°20' E 018°05'0 0.0
2017-Jun-15 23:00N 59°20' E 018°05'0 0.0
2017-Jun-15 22:30N 59°20' E 018°05'0 0.0
2017-Jun-15 22:00N 59°20' E 018°05'0 0.0
2017-Jun-15 21:30N 59°20' E 018°05'0 0.0
2017-Jun-15 21:00N 59°20' E 018°05'0 0.0
2017-Jun-15 20:30N 59°20' E 018°05'0 0.0
2017-Jun-15 20:00N 59°20' E 018°05'0 0.0
2017-Jun-15 19:30N 59°20' E 018°05'0 0.0
2017-Jun-15 19:00N 59°20' E 018°05'0 0.0
2017-Jun-15 18:30N 59°20' E 018°05'0 0.0
2017-Jun-15 18:00N 59°20' E 018°05'0 0.0
2017-Jun-15 17:30N 59°20' E 018°05'0 0.0
2017-Jun-15 17:00N 59°20' E 018°05'0 0.0
2017-Jun-15 16:30N 59°20' E 018°05'0 0.0
2017-Jun-15 16:00N 59°20' E 018°05'0 0.0
2017-Jun-15 15:30N 59°20' E 018°05'0 0.0
2017-Jun-15 15:00N 59°20' E 018°05'0 0.0
2017-Jun-15 14:00N 59°20' E 018°05'0 0.0
2017-Jun-15 13:30N 59°20' E 018°05'0 0.0
2017-Jun-15 13:00N 59°20' E 018°05'0 0.0
2017-Jun-15 12:30N 59°20' E 018°05'0 0.0
2017-Jun-15 12:00N 59°20' E 018°05'0 0.0
2017-Jun-15 11:30N 59°20' E 018°05'0 0.0
2017-Jun-15 11:00N 59°20' E 018°05'0 0.0
2017-Jun-15 10:30N 59°20' E 018°05'0 0.0
2017-Jun-15 10:00N 59°20' E 018°05'0 0.0
2017-Jun-15 09:30N 59°20' E 018°05'0 0.0
2017-Jun-15 09:00N 59°20' E 018°05'0 0.0
2017-Jun-15 08:30N 59°20' E 018°05'0 0.0
2017-Jun-15 08:00N 59°20' E 018°05'0 0.0
2017-Jun-15 07:30N 59°20' E 018°05'0 0.0
2017-Jun-15 06:59N 59°20' E 018°05'0 0.0
2017-Jun-15 06:30N 59°20' E 018°05'0 0.3
2017-Jun-15 06:00N 59°20' E 018°05'3 6.4
2017-Jun-15 05:30N 59°20' E 018°11'510.2
2017-Jun-15 05:00N 59°23' E 018°19'2 4.0
2017-Jun-15 04:30N 59°24' E 018°23'0 0.1
2017-Jun-15 04:00N 59°24' E 018°23'1 1.7
2017-Jun-15 03:30N 59°24' E 018°21'0 0.0
2017-Jun-15 03:00N 59°24' E 018°21'0 0.0
2017-Jun-15 02:30N 59°24' E 018°21'0 0.0
2017-Jun-15 02:00N 59°24' E 018°21'0 0.0
2017-Jun-15 01:30N 59°24' E 018°21'0 0.0
2017-Jun-15 01:00N 59°24' E 018°21'0 0.0
2017-Jun-15 00:30N 59°24' E 018°21'0 0.0
2017-Jun-15 00:00N 59°24' E 018°21'0 0.0
2017-Jun-14 23:30N 59°24' E 018°21'0 0.0
2017-Jun-14 23:00N 59°24' E 018°21'0 0.0
2017-Jun-14 22:31N 59°24' E 018°21'0 0.0
2017-Jun-14 22:00N 59°24' E 018°21'0 0.0
2017-Jun-14 21:30N 59°24' E 018°21'0 0.0
2017-Jun-14 21:00N 59°24' E 018°21'0 0.0
2017-Jun-14 20:30N 59°24' E 018°21'0 0.0
2017-Jun-14 20:00N 59°24' E 018°21'0 0.0
2017-Jun-14 19:30N 59°24' E 018°21'0 0.0
2017-Jun-14 19:00N 59°24' E 018°21'0 0.0
2017-Jun-14 18:30N 59°24' E 018°21'0 0.0
2017-Jun-14 18:00N 59°24' E 018°21'0 0.0
2017-Jun-14 17:30N 59°24' E 018°21'1 2.1
2017-Jun-14 17:00N 59°24' E 018°23'2 4.2
2017-Jun-14 16:31N 59°23' E 018°19'510.3
2017-Jun-14 16:00N 59°20' E 018°11'3 6.6
2017-Jun-14 15:30N 59°20' E 018°04'0 0.1
2017-Jun-14 15:00N 59°20' E 018°04'0 0.0
2017-Jun-14 14:00N 59°20' E 018°04'0 0.0
2017-Jun-14 13:30N 59°20' E 018°04'0 0.0
2017-Jun-14 13:00N 59°20' E 018°04'0 0.0
2017-Jun-14 12:30N 59°20' E 018°04'0 0.0
2017-Jun-14 12:00N 59°20' E 018°04'0 0.0
2017-Jun-14 11:30N 59°20' E 018°04'0 0.0
2017-Jun-14 11:01N 59°20' E 018°04'0 0.0
2017-Jun-14 10:30N 59°20' E 018°04'0 0.0
2017-Jun-14 10:00N 59°20' E 018°04'0 0.0
2017-Jun-14 09:30N 59°20' E 018°04'0 0.0
2017-Jun-14 09:00N 59°20' E 018°04'0 0.0
2017-Jun-14 08:30N 59°20' E 018°04'2 4.2
2017-Jun-14 08:00N 59°19' E 018°08'612.7
2017-Jun-14 07:30N 59°23' E 018°19'2 4.5
2017-Jun-14 07:00N 59°24' E 018°21'3 6.9
2017-Jun-14 06:30N 59°25' E 018°28'6 8.8
2017-Jun-14 05:52N 59°22' E 018°37'412.3
2017-Jun-14 05:31N 59°23' E 018°45'3 5.7
2017-Jun-14 05:00N 59°23' E 018°51'3 6.7
2017-Jun-14 04:31N 59°25' E 018°55'1 2.4
2017-Jun-14 04:01N 59°27' E 018°55'0 0.0
2017-Jun-14 03:30N 59°27' E 018°55'0 0.0
2017-Jun-14 03:00N 59°27' E 018°55'0 0.0
2017-Jun-14 02:30N 59°27' E 018°55'0 0.0
2017-Jun-14 02:00N 59°27' E 018°55'0 0.0
2017-Jun-14 01:31N 59°27' E 018°55'0 0.0
2017-Jun-14 01:01N 59°27' E 018°55'0 0.0
2017-Jun-14 00:30N 59°27' E 018°55'0 0.0
2017-Jun-14 00:00N 59°27' E 018°55'0 0.0
2017-Jun-13 23:30N 59°27' E 018°55'0 0.0
2017-Jun-13 23:00N 59°27' E 018°55'0 0.0
2017-Jun-13 22:30N 59°27' E 018°55'0 0.0
2017-Jun-13 22:00N 59°27' E 018°55'0 0.0
2017-Jun-13 21:30N 59°27' E 018°55'0 0.0
2017-Jun-13 21:00N 59°27' E 018°55'0 0.0
2017-Jun-13 20:30N 59°27' E 018°55'0 0.0
2017-Jun-13 20:00N 59°27' E 018°55'0 0.0
2017-Jun-13 19:30N 59°27' E 018°55'0 0.0
2017-Jun-13 19:00N 59°27' E 018°55'0 0.0
2017-Jun-13 18:30N 59°27' E 018°55'0 0.0
2017-Jun-13 18:00N 59°27' E 018°55'0 0.0
2017-Jun-13 17:30N 59°27' E 018°55'1 1.4
2017-Jun-13 17:00N 59°26' E 018°56'1 0.1
2017-Jun-13 12:03N 59°25' E 018°55'0 3.0
2017-Jun-13 12:00N 59°25' E 018°55'1 2.4
2017-Jun-13 11:30N 59°27' E 018°55'0 0.0
2017-Jun-13 11:00N 59°27' E 018°55'1 2.5
2017-Jun-13 10:31N 59°25' E 018°55'8 1.6
2017-Jun-13 05:27N 59°26' E 018°39'3 5.1
2017-Jun-13 04:55N 59°27' E 018°45'3 7.8
2017-Jun-13 04:31N 59°29' E 018°50'1 2.4
2017-Jun-13 04:00N 59°30' E 018°51'0 0.0
2017-Jun-13 03:29N 59°30' E 018°51'0 0.0
2017-Jun-13 03:00N 59°30' E 018°51'0 0.0
2017-Jun-13 02:30N 59°30' E 018°51'0 0.0
2017-Jun-13 01:58N 59°30' E 018°51'  

Dump ship's entire track history